sensor_id;sensor_type;location;lat;lon;timestamp;pressure;altitude;pressure_sealevel;temperature;humidity
6433;BME280;3249;42.690;23.260;2022-08-23T00:01:10;93860.97;;;18.02;100.00
6433;BME280;3249;42.690;23.260;2022-08-23T00:03:37;93865.97;;;17.98;100.00
6433;BME280;3249;42.690;23.260;2022-08-23T00:06:03;93867.72;;;18.03;100.00
6433;BME280;3249;42.690;23.260;2022-08-23T00:08:29;93868.00;;;18.01;100.00
6433;BME280;3249;42.690;23.260;2022-08-23T00:10:56;93875.78;;;18.07;100.00
6433;BME280;3249;42.690;23.260;2022-08-23T00:13:21;93883.03;;;18.15;100.00
6433;BME280;3249;42.690;23.260;2022-08-23T00:15:47;93869.41;;;17.89;100.00
6433;BME280;3249;42.690;23.260;2022-08-23T00:18:12;93890.84;;;18.09;100.00
6433;BME280;3249;42.690;23.260;2022-08-23T00:20:39;93868.50;;;18.03;100.00
6433;BME280;3249;42.690;23.260;2022-08-23T00:23:05;93880.44;;;18.15;100.00
6433;BME280;3249;42.690;23.260;2022-08-23T00:25:31;93867.97;;;18.07;100.00
6433;BME280;3249;42.690;23.260;2022-08-23T00:27:56;93863.00;;;18.10;100.00
6433;BME280;3249;42.690;23.260;2022-08-23T00:30:22;93878.75;;;18.29;100.00
6433;BME280;3249;42.690;23.260;2022-08-23T00:32:47;93881.09;;;18.30;100.00
6433;BME280;3249;42.690;23.260;2022-08-23T00:35:14;93877.25;;;18.23;100.00
6433;BME280;3249;42.690;23.260;2022-08-23T00:37:40;93875.22;;;18.09;100.00
6433;BME280;3249;42.690;23.260;2022-08-23T00:40:08;93875.22;;;18.15;100.00
6433;BME280;3249;42.690;23.260;2022-08-23T00:42:42;93881.03;;;18.01;100.00
6433;BME280;3249;42.690;23.260;2022-08-23T00:48:21;93875.22;;;18.15;100.00
6433;BME280;3249;42.690;23.260;2022-08-23T00:53:19;93874.34;;;17.90;100.00
6433;BME280;3249;42.690;23.260;2022-08-23T00:55:47;93860.84;;;17.83;100.00
6433;BME280;3249;42.690;23.260;2022-08-23T00:58:16;93860.31;;;17.81;100.00
6433;BME280;3249;42.690;23.260;2022-08-23T01:00:43;93866.09;;;17.78;100.00
6433;BME280;3249;42.690;23.260;2022-08-23T01:03:10;93859.25;;;17.87;100.00
6433;BME280;3249;42.690;23.260;2022-08-23T01:08:11;93861.59;;;17.89;100.00
6433;BME280;3249;42.690;23.260;2022-08-23T01:10:49;93849.59;;;17.93;100.00
6433;BME280;3249;42.690;23.260;2022-08-23T01:13:24;93869.16;;;18.24;100.00
6433;BME280;3249;42.690;23.260;2022-08-23T01:15:56;93875.38;;;18.28;100.00
6433;BME280;3249;42.690;23.260;2022-08-23T01:18:26;93871.19;;;18.32;100.00
6433;BME280;3249;42.690;23.260;2022-08-23T01:21:06;93881.53;;;18.42;100.00
6433;BME280;3249;42.690;23.260;2022-08-23T01:26:08;93885.09;;;18.51;100.00
6433;BME280;3249;42.690;23.260;2022-08-23T01:28:34;93889.56;;;18.46;100.00
6433;BME280;3249;42.690;23.260;2022-08-23T01:31:00;93888.28;;;18.43;100.00
6433;BME280;3249;42.690;23.260;2022-08-23T01:33:26;93887.53;;;18.43;100.00
6433;BME280;3249;42.690;23.260;2022-08-23T01:35:55;93869.38;;;18.28;100.00
6433;BME280;3249;42.690;23.260;2022-08-23T01:38:22;93887.97;;;18.50;100.00
6433;BME280;3249;42.690;23.260;2022-08-23T01:40:48;93889.97;;;18.63;100.00
6433;BME280;3249;42.690;23.260;2022-08-23T01:43:14;93878.69;;;18.67;100.00
6433;BME280;3249;42.690;23.260;2022-08-23T01:45:42;93864.72;;;18.58;100.00
6433;BME280;3249;42.690;23.260;2022-08-23T01:48:08;93872.97;;;18.37;100.00
6433;BME280;3249;42.690;23.260;2022-08-23T01:50:33;93878.31;;;18.17;100.00
6433;BME280;3249;42.690;23.260;2022-08-23T01:52:59;93879.94;;;18.08;100.00
6433;BME280;3249;42.690;23.260;2022-08-23T01:55:25;93881.72;;;18.17;100.00
6433;BME280;3249;42.690;23.260;2022-08-23T01:57:53;93883.91;;;18.34;100.00
6433;BME280;3249;42.690;23.260;2022-08-23T02:00:31;93873.94;;;18.46;100.00
6433;BME280;3249;42.690;23.260;2022-08-23T02:02:58;93874.13;;;18.54;100.00
6433;BME280;3249;42.690;23.260;2022-08-23T02:05:25;93869.72;;;18.55;100.00
6433;BME280;3249;42.690;23.260;2022-08-23T02:07:51;93873.34;;;18.54;100.00
6433;BME280;3249;42.690;23.260;2022-08-23T02:10:17;93866.31;;;18.54;100.00
6433;BME280;3249;42.690;23.260;2022-08-23T02:12:43;93858.88;;;18.43;100.00
6433;BME280;3249;42.690;23.260;2022-08-23T02:15:09;93882.22;;;18.53;100.00
6433;BME280;3249;42.690;23.260;2022-08-23T02:17:34;93863.03;;;18.44;100.00
6433;BME280;3249;42.690;23.260;2022-08-23T02:20:01;93864.22;;;18.17;100.00
6433;BME280;3249;42.690;23.260;2022-08-23T02:22:28;93863.31;;;18.03;100.00
6433;BME280;3249;42.690;23.260;2022-08-23T02:24:53;93851.03;;;18.09;100.00
6433;BME280;3249;42.690;23.260;2022-08-23T02:27:19;93839.22;;;18.17;100.00
6433;BME280;3249;42.690;23.260;2022-08-23T02:29:45;93847.91;;;18.41;100.00
6433;BME280;3249;42.690;23.260;2022-08-23T02:32:13;93862.91;;;18.54;100.00
6433;BME280;3249;42.690;23.260;2022-08-23T02:34:39;93863.69;;;18.54;100.00
6433;BME280;3249;42.690;23.260;2022-08-23T02:37:05;93858.50;;;18.54;100.00
6433;BME280;3249;42.690;23.260;2022-08-23T02:39:32;93862.91;;;18.54;100.00
6433;BME280;3249;42.690;23.260;2022-08-23T02:41:57;93859.03;;;18.51;100.00
6433;BME280;3249;42.690;23.260;2022-08-23T02:44:22;93853.91;;;18.41;100.00
6433;BME280;3249;42.690;23.260;2022-08-23T02:46:48;93830.63;;;18.21;100.00
6433;BME280;3249;42.690;23.260;2022-08-23T02:49:14;93872.97;;;18.37;100.00
6433;BME280;3249;42.690;23.260;2022-08-23T02:51:41;93869.31;;;18.38;100.00
6433;BME280;3249;42.690;23.260;2022-08-23T02:54:06;93863.63;;;18.31;100.00
6433;BME280;3249;42.690;23.260;2022-08-23T02:56:32;93860.72;;;18.37;100.00
6433;BME280;3249;42.690;23.260;2022-08-23T02:58:58;93868.72;;;18.46;100.00
6433;BME280;3249;42.690;23.260;2022-08-23T03:01:27;93862.38;;;18.57;100.00
6433;BME280;3249;42.690;23.260;2022-08-23T03:03:53;93855.22;;;18.67;100.00
6433;BME280;3249;42.690;23.260;2022-08-23T03:06:18;93872.28;;;18.83;100.00
6433;BME280;3249;42.690;23.260;2022-08-23T03:08:44;93871.06;;;18.76;100.00
6433;BME280;3249;42.690;23.260;2022-08-23T03:11:12;93875.75;;;18.79;100.00
6433;BME280;3249;42.690;23.260;2022-08-23T03:13:40;93867.59;;;18.85;100.00
6433;BME280;3249;42.690;23.260;2022-08-23T03:16:06;93862.63;;;18.84;100.00
6433;BME280;3249;42.690;23.260;2022-08-23T03:18:33;93869.19;;;18.81;100.00
6433;BME280;3249;42.690;23.260;2022-08-23T03:20:59;93887.72;;;18.80;100.00
6433;BME280;3249;42.690;23.260;2022-08-23T03:23:24;93888.44;;;18.85;100.00
6433;BME280;3249;42.690;23.260;2022-08-23T03:25:50;93880.84;;;18.89;100.00
6433;BME280;3249;42.690;23.260;2022-08-23T03:28:16;93872.25;;;18.88;100.00
6433;BME280;3249;42.690;23.260;2022-08-23T03:30:41;93888.31;;;19.00;100.00
6433;BME280;3249;42.690;23.260;2022-08-23T03:33:07;93899.56;;;19.24;100.00
6433;BME280;3249;42.690;23.260;2022-08-23T03:35:33;93873.59;;;19.09;100.00
6433;BME280;3249;42.690;23.260;2022-08-23T03:37:58;93880.09;;;18.88;100.00
6433;BME280;3249;42.690;23.260;2022-08-23T03:40:26;93889.38;;;18.71;100.00
6433;BME280;3249;42.690;23.260;2022-08-23T03:42:52;93895.22;;;18.58;100.00
6433;BME280;3249;42.690;23.260;2022-08-23T03:45:18;93883.66;;;18.40;100.00
6433;BME280;3249;42.690;23.260;2022-08-23T03:47:43;93883.47;;;18.27;100.00
6433;BME280;3249;42.690;23.260;2022-08-23T03:50:09;93890.44;;;18.31;100.00
6433;BME280;3249;42.690;23.260;2022-08-23T03:52:35;93901.66;;;18.32;100.00
6433;BME280;3249;42.690;23.260;2022-08-23T03:55:00;93903.09;;;18.14;100.00
6433;BME280;3249;42.690;23.260;2022-08-23T03:57:26;93919.81;;;18.03;100.00
6433;BME280;3249;42.690;23.260;2022-08-23T03:59:51;93923.78;;;17.95;100.00
6433;BME280;3249;42.690;23.260;2022-08-23T04:02:17;93935.78;;;17.91;100.00
6433;BME280;3249;42.690;23.260;2022-08-23T04:04:42;93908.03;;;17.67;100.00
6433;BME280;3249;42.690;23.260;2022-08-23T04:07:08;93940.53;;;17.79;100.00
6433;BME280;3249;42.690;23.260;2022-08-23T04:09:34;93948.84;;;17.81;100.00
6433;BME280;3249;42.690;23.260;2022-08-23T04:11:59;93943.44;;;17.68;100.00
6433;BME280;3249;42.690;23.260;2022-08-23T04:14:24;93958.28;;;17.72;100.00
6433;BME280;3249;42.690;23.260;2022-08-23T04:16:51;93960.06;;;17.82;100.00
6433;BME280;3249;42.690;23.260;2022-08-23T04:19:17;93940.34;;;17.66;100.00
6433;BME280;3249;42.690;23.260;2022-08-23T04:21:45;93952.28;;;17.77;100.00
6433;BME280;3249;42.690;23.260;2022-08-23T04:24:13;93955.13;;;17.75;100.00
6433;BME280;3249;42.690;23.260;2022-08-23T04:26:39;93961.09;;;17.76;100.00
6433;BME280;3249;42.690;23.260;2022-08-23T04:29:04;93933.53;;;17.75;100.00
6433;BME280;3249;42.690;23.260;2022-08-23T04:31:30;93953.75;;;17.93;100.00
6433;BME280;3249;42.690;23.260;2022-08-23T04:33:57;93947.97;;;18.01;100.00
6433;BME280;3249;42.690;23.260;2022-08-23T04:36:22;93957.56;;;18.05;100.00
6433;BME280;3249;42.690;23.260;2022-08-23T04:38:48;93961.28;;;17.99;100.00
6433;BME280;3249;42.690;23.260;2022-08-23T04:41:14;93963.34;;;17.97;100.00
6433;BME280;3249;42.690;23.260;2022-08-23T04:43:58;93960.25;;;17.95;100.00
6433;BME280;3249;42.690;23.260;2022-08-23T04:46:24;93943.63;;;17.81;100.00
6433;BME280;3249;42.690;23.260;2022-08-23T04:48:50;93954.13;;;17.71;100.00
6433;BME280;3249;42.690;23.260;2022-08-23T04:51:15;93953.00;;;17.87;100.00
6433;BME280;3249;42.690;23.260;2022-08-23T04:53:41;93950.47;;;17.72;100.00
6433;BME280;3249;42.690;23.260;2022-08-23T04:56:08;93953.19;;;18.01;100.00
6433;BME280;3249;42.690;23.260;2022-08-23T04:58:34;93957.00;;;18.19;100.00
6433;BME280;3249;42.690;23.260;2022-08-23T05:01:02;93965.47;;;18.39;100.00
6433;BME280;3249;42.690;23.260;2022-08-23T05:03:29;93962.06;;;18.44;100.00
6433;BME280;3249;42.690;23.260;2022-08-23T05:05:56;93970.84;;;18.53;100.00
6433;BME280;3249;42.690;23.260;2022-08-23T05:08:23;93985.34;;;18.69;100.00
6433;BME280;3249;42.690;23.260;2022-08-23T05:10:49;93975.53;;;18.56;100.00
6433;BME280;3249;42.690;23.260;2022-08-23T05:13:14;93993.13;;;18.40;100.00
6433;BME280;3249;42.690;23.260;2022-08-23T05:15:40;93987.47;;;18.18;100.00
6433;BME280;3249;42.690;23.260;2022-08-23T05:18:06;93984.25;;;18.31;100.00
6433;BME280;3249;42.690;23.260;2022-08-23T05:20:31;93980.91;;;18.31;100.00
6433;BME280;3249;42.690;23.260;2022-08-23T05:22:59;93975.13;;;18.34;100.00
6433;BME280;3249;42.690;23.260;2022-08-23T05:25:25;93981.88;;;18.45;100.00
6433;BME280;3249;42.690;23.260;2022-08-23T05:28:11;93983.56;;;18.64;100.00
6433;BME280;3249;42.690;23.260;2022-08-23T05:30:36;93984.63;;;18.58;100.00
6433;BME280;3249;42.690;23.260;2022-08-23T05:33:01;93997.00;;;18.43;100.00
6433;BME280;3249;42.690;23.260;2022-08-23T05:35:27;93999.97;;;18.65;100.00
6433;BME280;3249;42.690;23.260;2022-08-23T05:37:52;93994.16;;;18.73;100.00
6433;BME280;3249;42.690;23.260;2022-08-23T05:40:18;94005.50;;;18.92;100.00
6433;BME280;3249;42.690;23.260;2022-08-23T05:42:43;93996.19;;;18.81;100.00
6433;BME280;3249;42.690;23.260;2022-08-23T05:45:09;94003.75;;;18.82;100.00
6433;BME280;3249;42.690;23.260;2022-08-23T05:47:34;93999.06;;;18.84;100.00
6433;BME280;3249;42.690;23.260;2022-08-23T05:50:00;94008.38;;;19.24;100.00
6433;BME280;3249;42.690;23.260;2022-08-23T05:52:26;94015.97;;;19.49;100.00
6433;BME280;3249;42.690;23.260;2022-08-23T05:54:51;94020.88;;;19.79;100.00
6433;BME280;3249;42.690;23.260;2022-08-23T05:57:16;94020.97;;;19.92;100.00
6433;BME280;3249;42.690;23.260;2022-08-23T05:59:42;94028.81;;;20.16;100.00
6433;BME280;3249;42.690;23.260;2022-08-23T06:02:08;94033.78;;;20.36;100.00
6433;BME280;3249;42.690;23.260;2022-08-23T06:04:34;94037.81;;;20.47;100.00
6433;BME280;3249;42.690;23.260;2022-08-23T06:07:00;94045.91;;;20.69;100.00
6433;BME280;3249;42.690;23.260;2022-08-23T06:09:25;94044.81;;;20.88;100.00
6433;BME280;3249;42.690;23.260;2022-08-23T06:11:50;94057.47;;;21.00;100.00
6433;BME280;3249;42.690;23.260;2022-08-23T06:14:17;94065.47;;;21.08;100.00
6433;BME280;3249;42.690;23.260;2022-08-23T06:16:45;94062.16;;;21.03;100.00
6433;BME280;3249;42.690;23.260;2022-08-23T06:19:12;94063.47;;;21.19;100.00
6433;BME280;3249;42.690;23.260;2022-08-23T06:21:40;94051.88;;;20.32;100.00
6433;BME280;3249;42.690;23.260;2022-08-23T06:24:06;94059.78;;;20.27;100.00
6433;BME280;3249;42.690;23.260;2022-08-23T06:26:34;94067.81;;;20.54;100.00
6433;BME280;3249;42.690;23.260;2022-08-23T06:29:05;94078.63;;;20.85;100.00
6433;BME280;3249;42.690;23.260;2022-08-23T06:31:31;94064.13;;;20.92;100.00
6433;BME280;3249;42.690;23.260;2022-08-23T06:36:51;94072.06;;;21.06;100.00
6433;BME280;3249;42.690;23.260;2022-08-23T06:39:18;94081.88;;;21.46;100.00
6433;BME280;3249;42.690;23.260;2022-08-23T06:41:44;94089.50;;;21.61;100.00
6433;BME280;3249;42.690;23.260;2022-08-23T06:44:10;94071.00;;;21.39;100.00
6433;BME280;3249;42.690;23.260;2022-08-23T06:46:36;94091.78;;;21.81;100.00
6433;BME280;3249;42.690;23.260;2022-08-23T06:49:03;94086.69;;;21.39;100.00
6433;BME280;3249;42.690;23.260;2022-08-23T06:51:30;94084.81;;;20.94;100.00
6433;BME280;3249;42.690;23.260;2022-08-23T06:54:00;94083.69;;;21.13;100.00
6433;BME280;3249;42.690;23.260;2022-08-23T06:56:26;94077.72;;;21.13;100.00
6433;BME280;3249;42.690;23.260;2022-08-23T06:58:53;94090.69;;;21.36;100.00
6433;BME280;3249;42.690;23.260;2022-08-23T07:01:32;94084.81;;;21.26;100.00
6433;BME280;3249;42.690;23.260;2022-08-23T07:03:59;94073.22;;;21.32;100.00
6433;BME280;3249;42.690;23.260;2022-08-23T07:06:26;94095.53;;;21.43;100.00
6433;BME280;3249;42.690;23.260;2022-08-23T07:08:52;94088.66;;;21.15;100.00
6433;BME280;3249;42.690;23.260;2022-08-23T07:11:20;94090.13;;;21.71;100.00
6433;BME280;3249;42.690;23.260;2022-08-23T07:13:46;94094.44;;;21.94;100.00
6433;BME280;3249;42.690;23.260;2022-08-23T07:16:12;94096.38;;;22.30;100.00
6433;BME280;3249;42.690;23.260;2022-08-23T07:18:39;94096.19;;;22.53;100.00
6433;BME280;3249;42.690;23.260;2022-08-23T07:21:05;94098.22;;;22.29;100.00
6433;BME280;3249;42.690;23.260;2022-08-23T07:23:32;94111.47;;;22.51;100.00
6433;BME280;3249;42.690;23.260;2022-08-23T07:26:05;94099.47;;;22.18;100.00
6433;BME280;3249;42.690;23.260;2022-08-23T07:28:31;94103.34;;;22.34;100.00
6433;BME280;3249;42.690;23.260;2022-08-23T07:31:08;94064.22;;;22.11;100.00
6433;BME280;3249;42.690;23.260;2022-08-23T07:33:36;94096.16;;;22.26;100.00
6433;BME280;3249;42.690;23.260;2022-08-23T07:36:02;94097.72;;;21.54;100.00
6433;BME280;3249;42.690;23.260;2022-08-23T07:38:28;94095.81;;;21.28;100.00
6433;BME280;3249;42.690;23.260;2022-08-23T07:40:54;94099.31;;;21.37;100.00
6433;BME280;3249;42.690;23.260;2022-08-23T07:43:19;94091.56;;;21.32;100.00
6433;BME280;3249;42.690;23.260;2022-08-23T07:45:47;94097.97;;;21.39;100.00
6433;BME280;3249;42.690;23.260;2022-08-23T07:48:13;94101.41;;;21.67;100.00
6433;BME280;3249;42.690;23.260;2022-08-23T07:50:39;94109.06;;;21.82;100.00
6433;BME280;3249;42.690;23.260;2022-08-23T07:53:06;94114.19;;;21.87;100.00
6433;BME280;3249;42.690;23.260;2022-08-23T07:55:31;94085.78;;;21.62;100.00
6433;BME280;3249;42.690;23.260;2022-08-23T07:57:57;94113.44;;;21.86;100.00
6433;BME280;3249;42.690;23.260;2022-08-23T08:00:22;94093.66;;;22.21;100.00
6433;BME280;3249;42.690;23.260;2022-08-23T08:02:47;94109.97;;;22.32;100.00
6433;BME280;3249;42.690;23.260;2022-08-23T08:05:13;94117.34;;;22.43;100.00
6433;BME280;3249;42.690;23.260;2022-08-23T08:07:38;94123.94;;;22.27;100.00
6433;BME280;3249;42.690;23.260;2022-08-23T08:10:04;94125.69;;;22.18;100.00
6433;BME280;3249;42.690;23.260;2022-08-23T08:12:30;94121.44;;;22.36;100.00
6433;BME280;3249;42.690;23.260;2022-08-23T08:14:57;94114.97;;;22.82;100.00
6433;BME280;3249;42.690;23.260;2022-08-23T08:17:22;94118.50;;;22.78;100.00
6433;BME280;3249;42.690;23.260;2022-08-23T08:19:48;94136.69;;;23.23;100.00
6433;BME280;3249;42.690;23.260;2022-08-23T08:22:13;94149.47;;;23.60;100.00
6433;BME280;3249;42.690;23.260;2022-08-23T08:24:39;94154.25;;;23.80;100.00
6433;BME280;3249;42.690;23.260;2022-08-23T08:27:04;94156.09;;;23.80;100.00
6433;BME280;3249;42.690;23.260;2022-08-23T08:29:30;94155.84;;;23.90;100.00
6433;BME280;3249;42.690;23.260;2022-08-23T08:31:56;94155.44;;;24.18;100.00
6433;BME280;3249;42.690;23.260;2022-08-23T08:34:22;94153.59;;;24.27;100.00
6433;BME280;3249;42.690;23.260;2022-08-23T08:36:53;94153.31;;;24.29;100.00
6433;BME280;3249;42.690;23.260;2022-08-23T08:39:25;94153.47;;;24.32;100.00
6433;BME280;3249;42.690;23.260;2022-08-23T08:44:55;94151.69;;;23.89;100.00
6433;BME280;3249;42.690;23.260;2022-08-23T08:47:37;94148.53;;;23.78;100.00
6433;BME280;3249;42.690;23.260;2022-08-23T08:52:44;94137.41;;;24.03;100.00
6433;BME280;3249;42.690;23.260;2022-08-23T08:55:40;94148.16;;;23.93;100.00
6433;BME280;3249;42.690;23.260;2022-08-23T08:58:13;94137.69;;;23.80;100.00
6433;BME280;3249;42.690;23.260;2022-08-23T09:00:41;94131.53;;;23.84;100.00
6433;BME280;3249;42.690;23.260;2022-08-23T09:03:13;94110.78;;;23.74;100.00
6433;BME280;3249;42.690;23.260;2022-08-23T09:05:52;94119.34;;;23.88;100.00
6433;BME280;3249;42.690;23.260;2022-08-23T09:11:20;94110.47;;;24.45;100.00
6433;BME280;3249;42.690;23.260;2022-08-23T09:16:53;94110.91;;;24.86;100.00
6433;BME280;3249;42.690;23.260;2022-08-23T09:19:23;94114.03;;;25.05;100.00
6433;BME280;3249;42.690;23.260;2022-08-23T09:22:04;94120.84;;;25.23;100.00
6433;BME280;3249;42.690;23.260;2022-08-23T09:24:31;94123.22;;;25.33;100.00
6433;BME280;3249;42.690;23.260;2022-08-23T09:26:57;94121.94;;;25.31;100.00
6433;BME280;3249;42.690;23.260;2022-08-23T09:29:26;94128.88;;;25.27;100.00
6433;BME280;3249;42.690;23.260;2022-08-23T09:31:55;94113.88;;;24.07;100.00
6433;BME280;3249;42.690;23.260;2022-08-23T09:37:15;94107.44;;;24.21;100.00
6433;BME280;3249;42.690;23.260;2022-08-23T09:39:44;94121.97;;;23.88;100.00
6433;BME280;3249;42.690;23.260;2022-08-23T09:42:33;94116.47;;;24.29;100.00
6433;BME280;3249;42.690;23.260;2022-08-23T09:45:00;94113.56;;;24.47;100.00
6433;BME280;3249;42.690;23.260;2022-08-23T09:47:34;94113.19;;;24.62;100.00
6433;BME280;3249;42.690;23.260;2022-08-23T09:52:46;94113.56;;;24.47;100.00
6433;BME280;3249;42.690;23.260;2022-08-23T09:57:58;94115.91;;;25.13;100.00
6433;BME280;3249;42.690;23.260;2022-08-23T10:00:44;94125.34;;;25.14;100.00
6433;BME280;3249;42.690;23.260;2022-08-23T10:03:26;94119.84;;;24.68;100.00
6433;BME280;3249;42.690;23.260;2022-08-23T10:05:58;94122.88;;;24.53;100.00
6433;BME280;3249;42.690;23.260;2022-08-23T10:08:37;94092.34;;;23.96;100.00
6433;BME280;3249;42.690;23.260;2022-08-23T10:11:23;94123.81;;;24.57;100.00
6433;BME280;3249;42.690;23.260;2022-08-23T10:13:50;94130.22;;;24.73;100.00
6433;BME280;3249;42.690;23.260;2022-08-23T10:16:33;94115.06;;;24.70;100.00
6433;BME280;3249;42.690;23.260;2022-08-23T10:19:28;94140.06;;;24.98;100.00
6433;BME280;3249;42.690;23.260;2022-08-23T10:22:19;94137.56;;;25.27;100.00
6433;BME280;3249;42.690;23.260;2022-08-23T10:24:56;94136.97;;;25.39;100.00
6433;BME280;3249;42.690;23.260;2022-08-23T10:27:37;94141.03;;;25.45;100.00
6433;BME280;3249;42.690;23.260;2022-08-23T10:30:55;94135.13;;;25.39;100.00
6433;BME280;3249;42.690;23.260;2022-08-23T10:33:45;94133.03;;;25.87;100.00
6433;BME280;3249;42.690;23.260;2022-08-23T10:41:51;94120.22;;;25.01;100.00
6433;BME280;3249;42.690;23.260;2022-08-23T10:44:38;94121.66;;;25.49;100.00
6433;BME280;3249;42.690;23.260;2022-08-23T10:47:15;94117.28;;;25.36;100.00
6433;BME280;3249;42.690;23.260;2022-08-23T10:49:42;94115.91;;;25.30;100.00
6433;BME280;3249;42.690;23.260;2022-08-23T10:52:18;94101.16;;;25.46;100.00
6433;BME280;3249;42.690;23.260;2022-08-23T10:54:48;94117.56;;;25.77;100.00
6433;BME280;3249;42.690;23.260;2022-08-23T10:57:29;94118.28;;;26.12;100.00
6433;BME280;3249;42.690;23.260;2022-08-23T10:59:55;94118.28;;;26.04;100.00
6433;BME280;3249;42.690;23.260;2022-08-23T11:03:41;94117.84;;;26.02;100.00
6433;BME280;3249;42.690;23.260;2022-08-23T11:08:47;94113.25;;;25.56;100.00
6433;BME280;3249;42.690;23.260;2022-08-23T11:14:07;94110.94;;;25.54;100.00
6433;BME280;3249;42.690;23.260;2022-08-23T11:16:35;94118.31;;;25.86;100.00
6433;BME280;3249;42.690;23.260;2022-08-23T11:19:11;94109.13;;;26.01;99.99
6433;BME280;3249;42.690;23.260;2022-08-23T11:32:01;94115.13;;;26.56;99.27
6433;BME280;3249;42.690;23.260;2022-08-23T11:44:49;94099.53;;;25.97;100.00
6433;BME280;3249;42.690;23.260;2022-08-23T11:47:38;94097.03;;;25.91;100.00
6433;BME280;3249;42.690;23.260;2022-08-23T11:53:31;94110.75;;;26.69;90.27
6433;BME280;3249;42.690;23.260;2022-08-23T11:56:05;94108.00;;;26.86;86.49
6433;BME280;3249;42.690;23.260;2022-08-23T12:01:30;94109.63;;;27.19;81.57
6433;BME280;3249;42.690;23.260;2022-08-23T12:04:07;94106.44;;;26.85;80.75
6433;BME280;3249;42.690;23.260;2022-08-23T12:06:51;94106.59;;;27.09;77.51
6433;BME280;3249;42.690;23.260;2022-08-23T12:17:01;94115.19;;;27.79;77.80
6433;BME280;3249;42.690;23.260;2022-08-23T12:19:37;94102.81;;;27.71;79.42
6433;BME280;3249;42.690;23.260;2022-08-23T12:22:12;94116.19;;;27.54;77.57
6433;BME280;3249;42.690;23.260;2022-08-23T12:24:48;94105.69;;;27.46;76.12
6433;BME280;3249;42.690;23.260;2022-08-23T12:27:33;94093.28;;;27.17;79.16
6433;BME280;3249;42.690;23.260;2022-08-23T12:30:16;94090.31;;;26.49;86.27
6433;BME280;3249;42.690;23.260;2022-08-23T12:35:53;94081.81;;;26.06;89.72
6433;BME280;3249;42.690;23.260;2022-08-23T12:41:20;94091.28;;;26.36;100.00
6433;BME280;3249;42.690;23.260;2022-08-23T12:43:59;94073.41;;;25.40;100.00
6433;BME280;3249;42.690;23.260;2022-08-23T12:46:42;94078.97;;;25.47;100.00
6433;BME280;3249;42.690;23.260;2022-08-23T12:49:21;94082.25;;;25.53;100.00
6433;BME280;3249;42.690;23.260;2022-08-23T12:51:49;94077.44;;;25.46;100.00
6433;BME280;3249;42.690;23.260;2022-08-23T12:54:17;94075.09;;;25.11;100.00
6433;BME280;3249;42.690;23.260;2022-08-23T12:56:48;94075.09;;;24.94;100.00
6433;BME280;3249;42.690;23.260;2022-08-23T13:02:34;94075.25;;;24.80;100.00
6433;BME280;3249;42.690;23.260;2022-08-23T13:05:09;94077.28;;;25.00;100.00
6433;BME280;3249;42.690;23.260;2022-08-23T13:07:38;94064.09;;;25.00;100.00
6433;BME280;3249;42.690;23.260;2022-08-23T13:10:06;94077.13;;;25.39;100.00
6433;BME280;3249;42.690;23.260;2022-08-23T13:12:32;94077.56;;;25.24;100.00
6433;BME280;3249;42.690;23.260;2022-08-23T13:14:57;94072.19;;;25.29;100.00
6433;BME280;3249;42.690;23.260;2022-08-23T13:20:19;94080.38;;;25.02;100.00
6433;BME280;3249;42.690;23.260;2022-08-23T13:25:34;94074.03;;;25.46;100.00
6433;BME280;3249;42.690;23.260;2022-08-23T13:28:04;94070.75;;;25.49;100.00
6433;BME280;3249;42.690;23.260;2022-08-23T13:30:31;94060.81;;;25.63;100.00
6433;BME280;3249;42.690;23.260;2022-08-23T13:35:44;94067.13;;;25.79;100.00
6433;BME280;3249;42.690;23.260;2022-08-23T13:38:19;94054.59;;;25.67;100.00
6433;BME280;3249;42.690;23.260;2022-08-23T13:41:04;94066.56;;;25.56;100.00
6433;BME280;3249;42.690;23.260;2022-08-23T13:43:51;94057.28;;;25.50;100.00
6433;BME280;3249;42.690;23.260;2022-08-23T13:46:28;94048.75;;;25.36;100.00
6433;BME280;3249;42.690;23.260;2022-08-23T13:49:06;94048.47;;;25.29;100.00
6433;BME280;3249;42.690;23.260;2022-08-23T13:51:41;94025.22;;;25.14;100.00
6433;BME280;3249;42.690;23.260;2022-08-23T13:54:14;94040.09;;;25.02;100.00
6433;BME280;3249;42.690;23.260;2022-08-23T13:59:38;94048.78;;;24.94;100.00
6433;BME280;3249;42.690;23.260;2022-08-23T14:02:08;94061.78;;;24.90;100.00
6433;BME280;3249;42.690;23.260;2022-08-23T14:04:37;94061.94;;;24.85;100.00
6433;BME280;3249;42.690;23.260;2022-08-23T14:07:03;94072.28;;;24.73;100.00
6433;BME280;3249;42.690;23.260;2022-08-23T14:09:29;94075.69;;;24.65;100.00
6433;BME280;3249;42.690;23.260;2022-08-23T14:11:57;94087.09;;;24.52;100.00
6433;BME280;3249;42.690;23.260;2022-08-23T14:14:23;94082.25;;;24.37;100.00
6433;BME280;3249;42.690;23.260;2022-08-23T14:16:49;94089.31;;;24.20;100.00
6433;BME280;3249;42.690;23.260;2022-08-23T14:19:15;94092.53;;;24.08;100.00
6433;BME280;3249;42.690;23.260;2022-08-23T14:21:40;94083.38;;;23.97;100.00
6433;BME280;3249;42.690;23.260;2022-08-23T14:24:06;94083.41;;;23.84;100.00
6433;BME280;3249;42.690;23.260;2022-08-23T14:26:31;94083.63;;;23.65;100.00
6433;BME280;3249;42.690;23.260;2022-08-23T14:28:57;94083.38;;;23.45;100.00
6433;BME280;3249;42.690;23.260;2022-08-23T14:31:22;94085.88;;;23.28;100.00
6433;BME280;3249;42.690;23.260;2022-08-23T14:33:48;94092.44;;;23.17;100.00
6433;BME280;3249;42.690;23.260;2022-08-23T14:36:14;94095.56;;;23.05;100.00
6433;BME280;3249;42.690;23.260;2022-08-23T14:38:40;94091.19;;;22.79;100.00
6433;BME280;3249;42.690;23.260;2022-08-23T14:41:13;94102.34;;;22.84;100.00
6433;BME280;3249;42.690;23.260;2022-08-23T14:43:41;94107.03;;;22.74;100.00
6433;BME280;3249;42.690;23.260;2022-08-23T14:46:06;94116.09;;;22.54;100.00
6433;BME280;3249;42.690;23.260;2022-08-23T14:48:32;94110.47;;;22.34;100.00
6433;BME280;3249;42.690;23.260;2022-08-23T14:50:58;94102.88;;;22.05;100.00